El Jebel, Colorado
Current Conditions -  °F | °C
As of 12:38 AM on Saturday 25 Oct 2014 (Local Time) from K5SM Reporting Station
Clear Clear  
Wind Chill: 45°   Ceiling: Unl
Heat Index: 45°   Visibility: 10mi
Dew Point: 21°   Wind: 0mph
Humidity: 39%   Direction: NA
Pressure: 30.59"   Gusts: NA
Location:  39.4°N, 107.09°W
Report Text: K5SM 250638Z AUTO 00000KT 10SM CLR 07/M06 A3059 RMK AO2
Loading
Personal Weather Stations






























Interactive Weather Map
Tropical Storm Tracking
New forecast layout! Learn more

10-Day Weather Forecast

Advertisements
Track Severe Weather on mobile